sensor_id;sensor_type;location;lat;lon;timestamp;P1;durP1;ratioP1;P2;durP2;ratioP2
49530;SDS011;74875;30.696;104.060;2024-02-16T00:00:10;8.35;;;5.10;;
49530;SDS011;74875;30.696;104.060;2024-02-16T00:02:38;8.60;;;5.22;;
49530;SDS011;74875;30.696;104.060;2024-02-16T00:05:06;13.18;;;6.53;;
49530;SDS011;74875;30.696;104.060;2024-02-16T00:07:33;8.15;;;5.28;;
49530;SDS011;74875;30.696;104.060;2024-02-16T00:10:00;18.00;;;6.80;;
49530;SDS011;74875;30.696;104.060;2024-02-16T00:12:27;10.80;;;6.30;;
49530;SDS011;74875;30.696;104.060;2024-02-16T00:14:54;10.80;;;6.18;;
49530;SDS011;74875;30.696;104.060;2024-02-16T00:17:21;8.25;;;5.68;;
49530;SDS011;74875;30.696;104.060;2024-02-16T00:19:50;8.98;;;5.30;;
49530;SDS011;74875;30.696;104.060;2024-02-16T00:22:17;11.50;;;5.00;;
49530;SDS011;74875;30.696;104.060;2024-02-16T00:24:44;7.90;;;5.05;;
49530;SDS011;74875;30.696;104.060;2024-02-16T00:27:11;8.82;;;4.88;;
49530;SDS011;74875;30.696;104.060;2024-02-16T00:29:39;13.15;;;5.03;;
49530;SDS011;74875;30.696;104.060;2024-02-16T00:32:07;13.00;;;5.95;;
49530;SDS011;74875;30.696;104.060;2024-02-16T00:34:35;9.02;;;5.45;;
49530;SDS011;74875;30.696;104.060;2024-02-16T00:37:02;8.98;;;4.88;;
49530;SDS011;74875;30.696;104.060;2024-02-16T00:39:33;9.10;;;5.82;;
49530;SDS011;74875;30.696;104.060;2024-02-16T00:42:02;15.98;;;4.60;;
49530;SDS011;74875;30.696;104.060;2024-02-16T00:44:29;9.18;;;4.80;;
49530;SDS011;74875;30.696;104.060;2024-02-16T00:46:56;7.93;;;4.35;;
49530;SDS011;74875;30.696;104.060;2024-02-16T00:49:23;6.90;;;3.97;;
49530;SDS011;74875;30.696;104.060;2024-02-16T00:51:50;11.90;;;5.38;;
49530;SDS011;74875;30.696;104.060;2024-02-16T00:54:17;8.32;;;4.43;;
49530;SDS011;74875;30.696;104.060;2024-02-16T00:56:45;6.88;;;4.20;;
49530;SDS011;74875;30.696;104.060;2024-02-16T00:59:15;10.07;;;4.65;;
49530;SDS011;74875;30.696;104.060;2024-02-16T01:01:42;7.43;;;4.95;;
49530;SDS011;74875;30.696;104.060;2024-02-16T01:04:09;9.98;;;5.15;;
49530;SDS011;74875;30.696;104.060;2024-02-16T01:06:35;9.00;;;4.88;;
49530;SDS011;74875;30.696;104.060;2024-02-16T01:09:05;10.50;;;5.05;;
49530;SDS011;74875;30.696;104.060;2024-02-16T01:11:33;8.07;;;4.88;;
49530;SDS011;74875;30.696;104.060;2024-02-16T01:14:00;8.75;;;5.35;;
49530;SDS011;74875;30.696;104.060;2024-02-16T01:16:27;7.47;;;4.57;;
49530;SDS011;74875;30.696;104.060;2024-02-16T01:18:55;9.68;;;4.55;;
49530;SDS011;74875;30.696;104.060;2024-02-16T01:21:22;16.55;;;7.43;;
49530;SDS011;74875;30.696;104.060;2024-02-16T01:23:52;15.45;;;6.45;;
49530;SDS011;74875;30.696;104.060;2024-02-16T01:26:25;20.58;;;6.40;;
49530;SDS011;74875;30.696;104.060;2024-02-16T01:28:51;14.63;;;5.90;;
49530;SDS011;74875;30.696;104.060;2024-02-16T01:31:18;11.77;;;6.20;;
49530;SDS011;74875;30.696;104.060;2024-02-16T01:33:46;7.82;;;5.38;;
49530;SDS011;74875;30.696;104.060;2024-02-16T01:36:14;12.93;;;6.60;;
49530;SDS011;74875;30.696;104.060;2024-02-16T01:38:41;11.43;;;6.53;;
49530;SDS011;74875;30.696;104.060;2024-02-16T01:41:09;8.68;;;5.00;;
49530;SDS011;74875;30.696;104.060;2024-02-16T01:43:38;12.70;;;5.85;;
49530;SDS011;74875;30.696;104.060;2024-02-16T01:46:05;12.32;;;6.55;;
49530;SDS011;74875;30.696;104.060;2024-02-16T01:48:33;11.32;;;6.35;;
49530;SDS011;74875;30.696;104.060;2024-02-16T01:51:00;24.23;;;6.55;;
49530;SDS011;74875;30.696;104.060;2024-02-16T01:53:29;9.77;;;6.28;;
49530;SDS011;74875;30.696;104.060;2024-02-16T01:55:57;15.23;;;5.68;;
49530;SDS011;74875;30.696;104.060;2024-02-16T01:58:24;10.75;;;4.97;;
49530;SDS011;74875;30.696;104.060;2024-02-16T02:00:52;13.93;;;7.22;;
49530;SDS011;74875;30.696;104.060;2024-02-16T02:03:20;10.45;;;6.40;;
49530;SDS011;74875;30.696;104.060;2024-02-16T02:05:50;11.75;;;5.68;;
49530;SDS011;74875;30.696;104.060;2024-02-16T02:08:20;11.05;;;5.20;;
49530;SDS011;74875;30.696;104.060;2024-02-16T02:10:48;11.52;;;6.70;;
49530;SDS011;74875;30.696;104.060;2024-02-16T02:13:16;11.20;;;5.97;;
49530;SDS011;74875;30.696;104.060;2024-02-16T02:15:45;12.85;;;6.32;;
49530;SDS011;74875;30.696;104.060;2024-02-16T02:18:12;12.32;;;5.95;;
49530;SDS011;74875;30.696;104.060;2024-02-16T02:20:39;13.00;;;5.93;;
49530;SDS011;74875;30.696;104.060;2024-02-16T02:23:06;11.82;;;5.68;;
49530;SDS011;74875;30.696;104.060;2024-02-16T02:25:33;8.15;;;5.47;;
49530;SDS011;74875;30.696;104.060;2024-02-16T02:28:02;10.40;;;5.57;;
49530;SDS011;74875;30.696;104.060;2024-02-16T02:30:29;8.23;;;4.63;;
49530;SDS011;74875;30.696;104.060;2024-02-16T02:32:56;14.77;;;5.68;;
49530;SDS011;74875;30.696;104.060;2024-02-16T02:35:23;9.25;;;6.07;;
49530;SDS011;74875;30.696;104.060;2024-02-16T02:37:49;9.95;;;6.07;;
49530;SDS011;74875;30.696;104.060;2024-02-16T02:40:16;15.02;;;6.95;;
49530;SDS011;74875;30.696;104.060;2024-02-16T02:42:43;12.80;;;6.00;;
49530;SDS011;74875;30.696;104.060;2024-02-16T02:45:11;9.63;;;5.53;;
49530;SDS011;74875;30.696;104.060;2024-02-16T02:47:38;10.05;;;5.15;;
49530;SDS011;74875;30.696;104.060;2024-02-16T02:50:05;11.90;;;5.82;;
49530;SDS011;74875;30.696;104.060;2024-02-16T02:52:32;17.75;;;6.15;;
49530;SDS011;74875;30.696;104.060;2024-02-16T02:54:59;19.35;;;6.40;;
49530;SDS011;74875;30.696;104.060;2024-02-16T02:57:26;11.38;;;5.93;;
49530;SDS011;74875;30.696;104.060;2024-02-16T02:59:53;9.15;;;5.97;;
49530;SDS011;74875;30.696;104.060;2024-02-16T03:02:31;13.40;;;6.10;;
49530;SDS011;74875;30.696;104.060;2024-02-16T03:04:58;12.90;;;6.10;;
49530;SDS011;74875;30.696;104.060;2024-02-16T03:07:25;12.07;;;5.90;;
49530;SDS011;74875;30.696;104.060;2024-02-16T03:09:53;9.63;;;5.68;;
49530;SDS011;74875;30.696;104.060;2024-02-16T03:12:19;11.65;;;6.03;;
49530;SDS011;74875;30.696;104.060;2024-02-16T03:14:47;10.13;;;5.38;;
49530;SDS011;74875;30.696;104.060;2024-02-16T03:17:15;8.05;;;5.43;;
49530;SDS011;74875;30.696;104.060;2024-02-16T03:19:42;14.30;;;5.15;;
49530;SDS011;74875;30.696;104.060;2024-02-16T03:22:09;8.40;;;5.25;;
49530;SDS011;74875;30.696;104.060;2024-02-16T03:24:39;10.02;;;5.30;;
49530;SDS011;74875;30.696;104.060;2024-02-16T03:27:06;14.98;;;6.82;;
49530;SDS011;74875;30.696;104.060;2024-02-16T03:29:33;18.75;;;5.97;;
49530;SDS011;74875;30.696;104.060;2024-02-16T03:32:01;18.23;;;7.00;;
49530;SDS011;74875;30.696;104.060;2024-02-16T03:34:29;14.73;;;6.60;;
49530;SDS011;74875;30.696;104.060;2024-02-16T03:37:01;15.10;;;6.03;;
49530;SDS011;74875;30.696;104.060;2024-02-16T03:39:28;14.15;;;6.50;;
49530;SDS011;74875;30.696;104.060;2024-02-16T03:41:54;12.07;;;6.50;;
49530;SDS011;74875;30.696;104.060;2024-02-16T03:44:21;11.82;;;6.00;;
49530;SDS011;74875;30.696;104.060;2024-02-16T03:46:48;13.77;;;5.57;;
49530;SDS011;74875;30.696;104.060;2024-02-16T03:49:15;13.60;;;5.38;;
49530;SDS011;74875;30.696;104.060;2024-02-16T03:51:42;13.15;;;6.68;;
49530;SDS011;74875;30.696;104.060;2024-02-16T03:54:09;13.52;;;5.65;;
49530;SDS011;74875;30.696;104.060;2024-02-16T03:56:39;17.42;;;5.93;;
49530;SDS011;74875;30.696;104.060;2024-02-16T03:59:06;9.57;;;6.07;;
49530;SDS011;74875;30.696;104.060;2024-02-16T04:01:35;11.88;;;7.07;;
49530;SDS011;74875;30.696;104.060;2024-02-16T04:04:03;12.93;;;5.97;;
49530;SDS011;74875;30.696;104.060;2024-02-16T04:06:29;17.50;;;6.30;;
49530;SDS011;74875;30.696;104.060;2024-02-16T04:08:56;10.13;;;5.25;;
49530;SDS011;74875;30.696;104.060;2024-02-16T04:11:23;9.55;;;5.45;;
49530;SDS011;74875;30.696;104.060;2024-02-16T04:13:54;9.40;;;6.50;;
49530;SDS011;74875;30.696;104.060;2024-02-16T04:16:21;10.63;;;6.13;;
49530;SDS011;74875;30.696;104.060;2024-02-16T04:18:50;13.65;;;6.15;;
49530;SDS011;74875;30.696;104.060;2024-02-16T04:21:19;15.35;;;6.28;;
49530;SDS011;74875;30.696;104.060;2024-02-16T04:23:47;16.45;;;6.70;;
49530;SDS011;74875;30.696;104.060;2024-02-16T04:26:14;19.33;;;8.73;;
49530;SDS011;74875;30.696;104.060;2024-02-16T04:28:41;23.73;;;9.95;;
49530;SDS011;74875;30.696;104.060;2024-02-16T04:31:07;34.47;;;11.70;;
49530;SDS011;74875;30.696;104.060;2024-02-16T04:33:34;36.67;;;15.00;;
49530;SDS011;74875;30.696;104.060;2024-02-16T04:36:01;38.85;;;18.63;;
49530;SDS011;74875;30.696;104.060;2024-02-16T04:38:32;33.88;;;16.80;;
49530;SDS011;74875;30.696;104.060;2024-02-16T04:40:59;37.85;;;18.05;;
49530;SDS011;74875;30.696;104.060;2024-02-16T04:43:29;39.67;;;15.65;;
49530;SDS011;74875;30.696;104.060;2024-02-16T04:45:56;44.63;;;16.98;;
49530;SDS011;74875;30.696;104.060;2024-02-16T04:48:23;40.42;;;17.58;;
49530;SDS011;74875;30.696;104.060;2024-02-16T04:50:52;44.65;;;18.45;;
49530;SDS011;74875;30.696;104.060;2024-02-16T04:53:19;45.20;;;17.67;;
49530;SDS011;74875;30.696;104.060;2024-02-16T04:55:46;44.83;;;16.67;;
49530;SDS011;74875;30.696;104.060;2024-02-16T04:58:14;38.13;;;17.10;;
49530;SDS011;74875;30.696;104.060;2024-02-16T05:00:42;45.55;;;17.60;;
49530;SDS011;74875;30.696;104.060;2024-02-16T05:03:12;46.92;;;17.85;;
49530;SDS011;74875;30.696;104.060;2024-02-16T05:05:39;38.22;;;16.10;;
49530;SDS011;74875;30.696;104.060;2024-02-16T05:08:07;40.63;;;17.88;;
49530;SDS011;74875;30.696;104.060;2024-02-16T05:10:39;32.95;;;15.85;;
49530;SDS011;74875;30.696;104.060;2024-02-16T05:13:06;33.80;;;16.23;;
49530;SDS011;74875;30.696;104.060;2024-02-16T05:15:34;42.92;;;16.63;;
49530;SDS011;74875;30.696;104.060;2024-02-16T05:18:01;35.20;;;16.80;;
49530;SDS011;74875;30.696;104.060;2024-02-16T05:20:31;36.78;;;15.25;;
49530;SDS011;74875;30.696;104.060;2024-02-16T05:23:01;35.65;;;15.00;;
49530;SDS011;74875;30.696;104.060;2024-02-16T05:25:33;30.35;;;15.50;;
49530;SDS011;74875;30.696;104.060;2024-02-16T05:28:03;36.20;;;14.55;;
49530;SDS011;74875;30.696;104.060;2024-02-16T05:30:30;34.83;;;14.30;;
49530;SDS011;74875;30.696;104.060;2024-02-16T05:32:57;29.85;;;14.73;;
49530;SDS011;74875;30.696;104.060;2024-02-16T05:35:25;33.97;;;14.65;;
49530;SDS011;74875;30.696;104.060;2024-02-16T05:37:56;31.98;;;14.95;;
49530;SDS011;74875;30.696;104.060;2024-02-16T05:40:23;39.83;;;15.48;;
49530;SDS011;74875;30.696;104.060;2024-02-16T05:42:53;33.92;;;12.93;;
49530;SDS011;74875;30.696;104.060;2024-02-16T05:45:23;28.92;;;14.70;;
49530;SDS011;74875;30.696;104.060;2024-02-16T05:47:51;32.92;;;15.05;;
49530;SDS011;74875;30.696;104.060;2024-02-16T05:50:20;26.75;;;14.50;;
49530;SDS011;74875;30.696;104.060;2024-02-16T05:52:47;37.70;;;13.82;;
49530;SDS011;74875;30.696;104.060;2024-02-16T05:55:19;26.40;;;13.40;;
49530;SDS011;74875;30.696;104.060;2024-02-16T05:57:49;32.97;;;12.75;;
49530;SDS011;74875;30.696;104.060;2024-02-16T06:00:17;24.98;;;11.77;;
49530;SDS011;74875;30.696;104.060;2024-02-16T06:02:49;24.98;;;13.98;;
49530;SDS011;74875;30.696;104.060;2024-02-16T06:05:16;28.10;;;13.77;;
49530;SDS011;74875;30.696;104.060;2024-02-16T06:07:45;32.08;;;12.13;;
49530;SDS011;74875;30.696;104.060;2024-02-16T06:10:14;27.90;;;12.30;;
49530;SDS011;74875;30.696;104.060;2024-02-16T06:12:40;31.50;;;13.52;;
49530;SDS011;74875;30.696;104.060;2024-02-16T06:15:09;25.88;;;12.13;;
49530;SDS011;74875;30.696;104.060;2024-02-16T06:17:36;26.67;;;12.02;;
49530;SDS011;74875;30.696;104.060;2024-02-16T06:20:06;26.25;;;12.38;;
49530;SDS011;74875;30.696;104.060;2024-02-16T06:22:36;29.55;;;11.55;;
49530;SDS011;74875;30.696;104.060;2024-02-16T06:25:03;31.52;;;11.68;;
49530;SDS011;74875;30.696;104.060;2024-02-16T06:27:31;26.23;;;10.63;;
49530;SDS011;74875;30.696;104.060;2024-02-16T06:29:58;21.75;;;11.70;;
49530;SDS011;74875;30.696;104.060;2024-02-16T06:32:25;26.95;;;11.98;;
49530;SDS011;74875;30.696;104.060;2024-02-16T06:34:54;25.10;;;10.85;;
49530;SDS011;74875;30.696;104.060;2024-02-16T06:37:21;27.92;;;12.45;;
49530;SDS011;74875;30.696;104.060;2024-02-16T06:39:48;23.10;;;10.48;;
49530;SDS011;74875;30.696;104.060;2024-02-16T06:42:16;41.83;;;12.77;;
49530;SDS011;74875;30.696;104.060;2024-02-16T06:44:44;22.70;;;10.65;;
49530;SDS011;74875;30.696;104.060;2024-02-16T06:47:11;27.20;;;10.90;;
49530;SDS011;74875;30.696;104.060;2024-02-16T06:49:38;22.42;;;9.35;;
49530;SDS011;74875;30.696;104.060;2024-02-16T06:52:06;28.17;;;9.50;;
49530;SDS011;74875;30.696;104.060;2024-02-16T06:54:34;19.92;;;9.32;;
49530;SDS011;74875;30.696;104.060;2024-02-16T06:57:01;19.95;;;9.05;;
49530;SDS011;74875;30.696;104.060;2024-02-16T06:59:28;19.42;;;9.40;;
49530;SDS011;74875;30.696;104.060;2024-02-16T07:01:55;20.70;;;9.35;;
49530;SDS011;74875;30.696;104.060;2024-02-16T07:04:22;18.25;;;10.05;;
49530;SDS011;74875;30.696;104.060;2024-02-16T07:06:50;24.35;;;10.60;;
49530;SDS011;74875;30.696;104.060;2024-02-16T07:09:16;24.75;;;9.32;;
49530;SDS011;74875;30.696;104.060;2024-02-16T07:11:45;15.68;;;10.02;;
49530;SDS011;74875;30.696;104.060;2024-02-16T07:14:12;24.42;;;10.38;;
49530;SDS011;74875;30.696;104.060;2024-02-16T07:16:39;18.60;;;8.73;;
49530;SDS011;74875;30.696;104.060;2024-02-16T07:19:06;25.17;;;8.88;;
49530;SDS011;74875;30.696;104.060;2024-02-16T07:21:34;21.52;;;9.63;;
49530;SDS011;74875;30.696;104.060;2024-02-16T07:24:01;15.75;;;7.15;;
49530;SDS011;74875;30.696;104.060;2024-02-16T07:26:28;18.38;;;7.30;;
49530;SDS011;74875;30.696;104.060;2024-02-16T07:28:59;16.52;;;7.93;;
49530;SDS011;74875;30.696;104.060;2024-02-16T07:31:34;19.30;;;7.95;;
49530;SDS011;74875;30.696;104.060;2024-02-16T07:34:02;13.68;;;6.75;;
49530;SDS011;74875;30.696;104.060;2024-02-16T07:36:30;15.27;;;7.60;;
49530;SDS011;74875;30.696;104.060;2024-02-16T07:39:01;16.33;;;7.45;;
49530;SDS011;74875;30.696;104.060;2024-02-16T07:41:30;13.57;;;7.50;;
49530;SDS011;74875;30.696;104.060;2024-02-16T07:43:57;19.75;;;8.05;;
49530;SDS011;74875;30.696;104.060;2024-02-16T07:46:24;12.02;;;6.63;;
49530;SDS011;74875;30.696;104.060;2024-02-16T07:48:53;14.90;;;7.18;;
49530;SDS011;74875;30.696;104.060;2024-02-16T07:51:20;15.50;;;7.00;;
49530;SDS011;74875;30.696;104.060;2024-02-16T07:53:47;14.70;;;6.90;;
49530;SDS011;74875;30.696;104.060;2024-02-16T07:56:15;10.63;;;6.50;;
49530;SDS011;74875;30.696;104.060;2024-02-16T07:58:43;11.02;;;7.05;;
49530;SDS011;74875;30.696;104.060;2024-02-16T08:01:13;15.23;;;7.80;;
49530;SDS011;74875;30.696;104.060;2024-02-16T08:03:45;13.75;;;7.28;;
49530;SDS011;74875;30.696;104.060;2024-02-16T08:06:13;17.23;;;7.40;;
49530;SDS011;74875;30.696;104.060;2024-02-16T08:08:41;16.95;;;7.68;;
49530;SDS011;74875;30.696;104.060;2024-02-16T08:11:08;11.48;;;6.57;;
49530;SDS011;74875;30.696;104.060;2024-02-16T08:13:37;15.93;;;6.75;;
49530;SDS011;74875;30.696;104.060;2024-02-16T08:16:05;11.90;;;6.43;;
49530;SDS011;74875;30.696;104.060;2024-02-16T08:18:35;17.70;;;7.47;;
49530;SDS011;74875;30.696;104.060;2024-02-16T08:21:02;15.85;;;6.65;;
49530;SDS011;74875;30.696;104.060;2024-02-16T08:23:29;11.57;;;5.80;;
49530;SDS011;74875;30.696;104.060;2024-02-16T08:25:57;11.48;;;6.45;;
49530;SDS011;74875;30.696;104.060;2024-02-16T08:28:26;10.57;;;6.55;;
49530;SDS011;74875;30.696;104.060;2024-02-16T08:30:53;12.73;;;6.70;;
49530;SDS011;74875;30.696;104.060;2024-02-16T08:33:19;10.95;;;6.47;;
49530;SDS011;74875;30.696;104.060;2024-02-16T08:35:46;13.77;;;7.18;;
49530;SDS011;74875;30.696;104.060;2024-02-16T08:38:13;13.80;;;7.60;;
49530;SDS011;74875;30.696;104.060;2024-02-16T08:40:40;13.68;;;6.28;;
49530;SDS011;74875;30.696;104.060;2024-02-16T08:43:08;13.95;;;6.32;;
49530;SDS011;74875;30.696;104.060;2024-02-16T08:45:38;12.52;;;7.15;;
49530;SDS011;74875;30.696;104.060;2024-02-16T08:48:06;12.20;;;6.00;;
49530;SDS011;74875;30.696;104.060;2024-02-16T08:50:36;14.13;;;6.20;;
49530;SDS011;74875;30.696;104.060;2024-02-16T08:53:03;13.90;;;5.80;;
49530;SDS011;74875;30.696;104.060;2024-02-16T08:55:30;15.13;;;5.75;;
49530;SDS011;74875;30.696;104.060;2024-02-16T08:58:01;11.93;;;5.50;;
49530;SDS011;74875;30.696;104.060;2024-02-16T09:00:28;9.60;;;5.78;;
49530;SDS011;74875;30.696;104.060;2024-02-16T09:02:58;9.38;;;5.20;;
49530;SDS011;74875;30.696;104.060;2024-02-16T09:05:28;14.32;;;5.68;;
49530;SDS011;74875;30.696;104.060;2024-02-16T09:07:55;9.98;;;5.75;;
49530;SDS011;74875;30.696;104.060;2024-02-16T09:10:22;11.52;;;5.85;;
49530;SDS011;74875;30.696;104.060;2024-02-16T09:12:51;9.85;;;4.53;;
49530;SDS011;74875;30.696;104.060;2024-02-16T09:15:19;9.70;;;5.32;;
49530;SDS011;74875;30.696;104.060;2024-02-16T09:17:46;14.82;;;5.63;;
49530;SDS011;74875;30.696;104.060;2024-02-16T09:20:13;10.25;;;5.20;;
49530;SDS011;74875;30.696;104.060;2024-02-16T09:22:40;10.38;;;5.25;;
49530;SDS011;74875;30.696;104.060;2024-02-16T09:25:08;11.75;;;5.72;;
49530;SDS011;74875;30.696;104.060;2024-02-16T09:27:35;13.60;;;5.90;;
49530;SDS011;74875;30.696;104.060;2024-02-16T09:30:06;10.35;;;4.82;;
49530;SDS011;74875;30.696;104.060;2024-02-16T09:32:34;9.00;;;5.35;;
49530;SDS011;74875;30.696;104.060;2024-02-16T09:35:07;8.43;;;4.50;;
49530;SDS011;74875;30.696;104.060;2024-02-16T09:37:38;12.27;;;5.20;;
49530;SDS011;74875;30.696;104.060;2024-02-16T09:40:06;9.60;;;4.88;;
49530;SDS011;74875;30.696;104.060;2024-02-16T09:42:37;9.75;;;5.53;;
49530;SDS011;74875;30.696;104.060;2024-02-16T09:45:09;10.90;;;5.45;;
49530;SDS011;74875;30.696;104.060;2024-02-16T09:47:38;12.18;;;5.55;;
49530;SDS011;74875;30.696;104.060;2024-02-16T09:50:05;8.02;;;4.30;;
49530;SDS011;74875;30.696;104.060;2024-02-16T09:52:33;9.88;;;4.93;;
49530;SDS011;74875;30.696;104.060;2024-02-16T09:55:01;10.70;;;5.75;;
49530;SDS011;74875;30.696;104.060;2024-02-16T09:57:28;12.80;;;5.07;;
49530;SDS011;74875;30.696;104.060;2024-02-16T09:59:56;11.60;;;5.20;;
49530;SDS011;74875;30.696;104.060;2024-02-16T10:02:24;12.27;;;5.13;;
49530;SDS011;74875;30.696;104.060;2024-02-16T10:04:54;11.80;;;6.50;;
49530;SDS011;74875;30.696;104.060;2024-02-16T10:07:31;13.88;;;5.95;;
49530;SDS011;74875;30.696;104.060;2024-02-16T10:09:58;13.27;;;6.13;;
49530;SDS011;74875;30.696;104.060;2024-02-16T10:12:25;15.40;;;7.10;;
49530;SDS011;74875;30.696;104.060;2024-02-16T10:17:25;14.98;;;7.63;;
49530;SDS011;74875;30.696;104.060;2024-02-16T10:19:56;16.52;;;6.95;;
49530;SDS011;74875;30.696;104.060;2024-02-16T10:22:23;13.65;;;7.18;;
49530;SDS011;74875;30.696;104.060;2024-02-16T10:24:51;12.05;;;6.22;;
49530;SDS011;74875;30.696;104.060;2024-02-16T10:27:21;13.60;;;5.88;;
49530;SDS011;74875;30.696;104.060;2024-02-16T10:29:49;11.30;;;7.30;;
49530;SDS011;74875;30.696;104.060;2024-02-16T10:32:19;11.32;;;6.95;;
49530;SDS011;74875;30.696;104.060;2024-02-16T10:34:46;11.65;;;6.35;;
49530;SDS011;74875;30.696;104.060;2024-02-16T10:37:15;13.23;;;6.45;;
49530;SDS011;74875;30.696;104.060;2024-02-16T10:39:42;12.65;;;6.78;;
49530;SDS011;74875;30.696;104.060;2024-02-16T10:42:11;13.63;;;6.40;;
49530;SDS011;74875;30.696;104.060;2024-02-16T10:44:40;14.30;;;6.78;;
49530;SDS011;74875;30.696;104.060;2024-02-16T10:47:08;13.85;;;5.60;;
49530;SDS011;74875;30.696;104.060;2024-02-16T10:49:37;13.95;;;6.00;;
49530;SDS011;74875;30.696;104.060;2024-02-16T10:52:04;11.07;;;6.00;;
49530;SDS011;74875;30.696;104.060;2024-02-16T10:54:32;16.17;;;6.57;;
49530;SDS011;74875;30.696;104.060;2024-02-16T10:57:00;13.68;;;7.00;;
49530;SDS011;74875;30.696;104.060;2024-02-16T10:59:27;17.95;;;6.63;;
49530;SDS011;74875;30.696;104.060;2024-02-16T11:02:13;10.43;;;6.07;;
49530;SDS011;74875;30.696;104.060;2024-02-16T11:04:41;13.88;;;7.05;;
49530;SDS011;74875;30.696;104.060;2024-02-16T11:07:15;13.40;;;6.90;;
49530;SDS011;74875;30.696;104.060;2024-02-16T11:09:43;9.98;;;5.85;;
49530;SDS011;74875;30.696;104.060;2024-02-16T11:12:13;11.30;;;6.25;;
49530;SDS011;74875;30.696;104.060;2024-02-16T11:14:42;11.20;;;5.70;;
49530;SDS011;74875;30.696;104.060;2024-02-16T11:17:20;15.13;;;6.57;;
49530;SDS011;74875;30.696;104.060;2024-02-16T11:19:49;12.20;;;6.95;;
49530;SDS011;74875;30.696;104.060;2024-02-16T11:22:16;12.30;;;5.93;;
49530;SDS011;74875;30.696;104.060;2024-02-16T11:24:45;12.48;;;6.18;;
49530;SDS011;74875;30.696;104.060;2024-02-16T11:27:13;10.73;;;7.25;;
49530;SDS011;74875;30.696;104.060;2024-02-16T11:29:47;11.85;;;6.28;;
49530;SDS011;74875;30.696;104.060;2024-02-16T11:32:18;16.05;;;7.18;;
49530;SDS011;74875;30.696;104.060;2024-02-16T11:34:48;14.18;;;7.88;;
49530;SDS011;74875;30.696;104.060;2024-02-16T11:37:15;15.10;;;8.38;;
49530;SDS011;74875;30.696;104.060;2024-02-16T11:39:42;13.73;;;8.13;;
49530;SDS011;74875;30.696;104.060;2024-02-16T11:42:12;12.32;;;8.13;;
49530;SDS011;74875;30.696;104.060;2024-02-16T11:44:49;12.70;;;7.97;;
49530;SDS011;74875;30.696;104.060;2024-02-16T11:47:22;11.20;;;6.60;;
49530;SDS011;74875;30.696;104.060;2024-02-16T11:50:06;17.67;;;8.05;;
49530;SDS011;74875;30.696;104.060;2024-02-16T11:52:38;16.00;;;8.45;;
49530;SDS011;74875;30.696;104.060;2024-02-16T11:55:09;12.13;;;7.80;;
49530;SDS011;74875;30.696;104.060;2024-02-16T11:57:43;16.05;;;8.48;;
49530;SDS011;74875;30.696;104.060;2024-02-16T12:00:13;11.70;;;7.47;;
49530;SDS011;74875;30.696;104.060;2024-02-16T12:02:40;13.77;;;8.63;;
49530;SDS011;74875;30.696;104.060;2024-02-16T12:05:07;13.05;;;8.30;;
49530;SDS011;74875;30.696;104.060;2024-02-16T12:07:37;16.67;;;8.85;;
49530;SDS011;74875;30.696;104.060;2024-02-16T12:10:07;12.70;;;8.38;;
49530;SDS011;74875;30.696;104.060;2024-02-16T12:12:39;14.77;;;8.23;;
49530;SDS011;74875;30.696;104.060;2024-02-16T12:15:07;14.15;;;8.25;;
49530;SDS011;74875;30.696;104.060;2024-02-16T12:17:35;15.88;;;9.10;;
49530;SDS011;74875;30.696;104.060;2024-02-16T12:20:02;13.70;;;8.73;;
49530;SDS011;74875;30.696;104.060;2024-02-16T12:22:36;17.35;;;7.93;;
49530;SDS011;74875;30.696;104.060;2024-02-16T12:25:03;17.13;;;8.77;;
49530;SDS011;74875;30.696;104.060;2024-02-16T12:27:30;11.85;;;7.20;;
49530;SDS011;74875;30.696;104.060;2024-02-16T12:29:59;14.63;;;7.00;;
49530;SDS011;74875;30.696;104.060;2024-02-16T12:32:27;14.82;;;8.18;;
49530;SDS011;74875;30.696;104.060;2024-02-16T12:35:01;13.00;;;8.00;;
49530;SDS011;74875;30.696;104.060;2024-02-16T12:37:30;12.32;;;8.65;;
49530;SDS011;74875;30.696;104.060;2024-02-16T12:39:57;16.65;;;8.60;;
49530;SDS011;74875;30.696;104.060;2024-02-16T12:42:28;19.15;;;8.30;;
49530;SDS011;74875;30.696;104.060;2024-02-16T12:44:55;14.20;;;7.63;;
49530;SDS011;74875;30.696;104.060;2024-02-16T12:47:22;16.80;;;8.27;;
49530;SDS011;74875;30.696;104.060;2024-02-16T12:49:52;14.65;;;7.97;;
49530;SDS011;74875;30.696;104.060;2024-02-16T12:52:23;14.90;;;8.18;;
49530;SDS011;74875;30.696;104.060;2024-02-16T12:54:52;16.83;;;9.70;;
49530;SDS011;74875;30.696;104.060;2024-02-16T12:57:27;15.18;;;9.30;;
49530;SDS011;74875;30.696;104.060;2024-02-16T12:59:55;10.60;;;6.97;;
49530;SDS011;74875;30.696;104.060;2024-02-16T13:02:25;16.23;;;7.78;;
49530;SDS011;74875;30.696;104.060;2024-02-16T13:04:52;18.85;;;8.57;;
49530;SDS011;74875;30.696;104.060;2024-02-16T13:07:19;12.85;;;8.40;;
49530;SDS011;74875;30.696;104.060;2024-02-16T13:09:46;16.95;;;8.07;;
49530;SDS011;74875;30.696;104.060;2024-02-16T13:12:16;12.10;;;7.63;;
49530;SDS011;74875;30.696;104.060;2024-02-16T13:14:46;13.20;;;7.65;;
49530;SDS011;74875;30.696;104.060;2024-02-16T13:17:12;14.85;;;8.45;;
49530;SDS011;74875;30.696;104.060;2024-02-16T13:19:41;10.90;;;5.88;;
49530;SDS011;74875;30.696;104.060;2024-02-16T13:22:08;11.48;;;7.82;;
49530;SDS011;74875;30.696;104.060;2024-02-16T13:24:35;16.30;;;8.50;;
49530;SDS011;74875;30.696;104.060;2024-02-16T13:27:02;14.68;;;7.60;;
49530;SDS011;74875;30.696;104.060;2024-02-16T13:29:31;14.15;;;7.63;;
49530;SDS011;74875;30.696;104.060;2024-02-16T13:31:59;16.98;;;7.80;;
49530;SDS011;74875;30.696;104.060;2024-02-16T13:34:26;19.67;;;8.02;;
49530;SDS011;74875;30.696;104.060;2024-02-16T13:36:55;16.45;;;7.60;;
49530;SDS011;74875;30.696;104.060;2024-02-16T13:39:29;15.57;;;8.25;;
49530;SDS011;74875;30.696;104.060;2024-02-16T13:41:58;14.02;;;7.18;;
49530;SDS011;74875;30.696;104.060;2024-02-16T13:44:28;14.25;;;7.55;;
49530;SDS011;74875;30.696;104.060;2024-02-16T13:46:55;12.85;;;7.43;;
49530;SDS011;74875;30.696;104.060;2024-02-16T13:49:22;13.23;;;7.57;;
49530;SDS011;74875;30.696;104.060;2024-02-16T13:51:49;16.23;;;7.97;;
49530;SDS011;74875;30.696;104.060;2024-02-16T13:54:18;16.20;;;7.88;;
49530;SDS011;74875;30.696;104.060;2024-02-16T13:56:51;13.23;;;7.53;;
49530;SDS011;74875;30.696;104.060;2024-02-16T13:59:20;12.65;;;7.80;;
49530;SDS011;74875;30.696;104.060;2024-02-16T14:01:54;23.17;;;7.90;;
49530;SDS011;74875;30.696;104.060;2024-02-16T14:04:26;12.30;;;8.25;;
49530;SDS011;74875;30.696;104.060;2024-02-16T14:06:53;14.07;;;8.05;;
49530;SDS011;74875;30.696;104.060;2024-02-16T14:09:21;13.70;;;7.82;;
49530;SDS011;74875;30.696;104.060;2024-02-16T14:11:52;15.48;;;8.05;;
49530;SDS011;74875;30.696;104.060;2024-02-16T14:14:21;12.13;;;8.23;;
49530;SDS011;74875;30.696;104.060;2024-02-16T14:16:47;18.45;;;7.85;;